Time;durP1;ratioP1;P1;durP2;ratioP2;P2;SDS_P1;SDS_P2;PMS_P1;PMS_P2;Temp;Humidity;BMP_temperature;BMP_pressure;BME280_temperature;BME280_humidity;BME280_pressure;Samples;Min_cycle;Max_cycle;Signal;HPM_P1;HPM_P2
2023/06/21 00:00:45;;;;;;;1999.90;999.90;;;19.10;81.80;;;;;;5053454;28;20029;-73
2023/06/21 00:03:13;;;;;;;1999.90;999.90;;;19.30;79.80;;;;;;5050871;28;20045;-71
2023/06/21 00:05:41;;;;;;;1999.90;999.90;;;19.90;78.10;;;;;;5056046;28;20395;-71
2023/06/21 00:08:08;;;;;;;1999.90;999.90;;;19.80;80.00;;;;;;5051043;28;20033;-71
2023/06/21 00:10:36;;;;;;;1999.90;999.90;;;20.20;78.90;;;;;;5054423;28;20025;-71
2023/06/21 00:13:03;;;;;;;1999.90;999.90;;;20.50;79.10;;;;;;5051984;28;20368;-72
2023/06/21 00:15:31;;;;;;;1999.90;999.90;;;20.50;78.90;;;;;;5050030;28;20029;-74
2023/06/21 00:17:58;;;;;;;1999.90;999.90;;;20.90;79.20;;;;;;5054114;28;20025;-73
2023/06/21 00:20:25;;;;;;;1999.90;999.90;;;20.90;78.80;;;;;;5051825;28;20025;-73
2023/06/21 00:22:55;;;;;;;1999.90;999.90;;;21.70;75.00;;;;;;5054483;28;20139;-74
2023/06/21 00:25:26;;;;;;;1999.90;999.90;;;21.30;76.60;;;;;;5051326;28;20033;-71
2023/06/21 00:27:54;;;;;;;1999.90;999.90;;;21.50;77.20;;;;;;5055520;28;20021;-71
2023/06/21 00:30:21;;;;;;;1999.90;999.90;;;22.20;74.00;;;;;;5049246;28;20048;-73
2023/06/21 00:32:48;;;;;;;1999.90;999.90;;;22.10;73.80;;;;;;5049981;28;20388;-72
2023/06/21 00:35:17;;;;;;;1999.90;999.90;;;21.50;76.40;;;;;;5052368;28;20055;-73
2023/06/21 00:37:44;;;;;;;1999.90;999.90;;;22.00;74.30;;;;;;5049699;28;20029;-72
2023/06/21 00:40:13;;;;;;;1999.90;999.90;;;22.10;73.90;;;;;;5048404;28;20033;-73
2023/06/21 00:42:41;;;;;;;1999.90;999.90;;;22.00;75.40;;;;;;5053081;28;20043;-72
2023/06/21 00:45:15;;;;;;;1999.90;999.90;;;22.30;73.90;;;;;;5047836;28;20090;-73
2023/06/21 00:47:42;;;;;;;1999.90;999.90;;;22.40;75.10;;;;;;5052628;28;20476;-74
2023/06/21 00:50:10;;;;;;;1999.90;999.90;;;22.70;74.60;;;;;;5054957;28;20063;-74
2023/06/21 00:52:39;;;;;;;1999.90;999.90;;;22.80;74.90;;;;;;5046976;28;20395;-73
2023/06/21 00:55:08;;;;;;;1999.90;999.90;;;23.10;74.50;;;;;;5042938;28;20041;-71
2023/06/21 00:57:36;;;;;;;1999.90;999.90;;;23.70;73.80;;;;;;5052949;28;20044;-72
2023/06/21 01:00:05;;;;;;;1999.90;999.90;;;23.90;74.00;;;;;;5051721;28;20111;-74
2023/06/21 01:02:34;;;;;;;1999.90;999.90;;;24.20;72.80;;;;;;5070634;28;20029;-73
2023/06/21 01:05:03;;;;;;;1999.90;999.90;;;24.40;72.10;;;;;;5047795;28;20100;-73
2023/06/21 01:07:49;;;;;;;1999.90;999.90;;;24.30;73.00;;;;;;5055813;28;20040;-72
2023/06/21 01:10:34;;;;;;;1999.90;999.90;;;24.40;72.50;;;;;;5052507;28;20067;-73
2023/06/21 01:13:19;;;;;;;1999.90;999.90;;;24.30;71.20;;;;;;5056799;28;20082;-73
2023/06/21 01:15:53;;;;;;;1999.90;999.90;;;24.30;72.60;;;;;;5049557;28;20430;-74
2023/06/21 01:18:22;;;;;;;1999.90;999.90;;;24.70;73.00;;;;;;5060109;28;20039;-73
2023/06/21 01:20:57;;;;;;;1999.90;999.90;;;24.90;71.90;;;;;;5050463;28;21031;-72
2023/06/21 01:23:38;;;;;;;1999.90;999.90;;;25.00;72.40;;;;;;5057997;28;20110;-73
2023/06/21 01:26:29;;;;;;;1999.90;999.90;;;25.10;71.20;;;;;;5052912;28;20029;-70
2023/06/21 01:29:12;;;;;;;1999.90;999.90;;;24.90;70.50;;;;;;5053418;28;20492;-71
2023/06/21 01:31:45;;;;;;;1999.90;999.90;;;24.80;71.20;;;;;;5048011;28;20029;-71
2023/06/21 01:34:13;;;;;;;1999.90;999.90;;;24.90;71.90;;;;;;5052470;28;20392;-68
2023/06/21 01:36:41;;;;;;;1999.90;999.90;;;25.30;70.10;;;;;;5045929;28;20041;-69
2023/06/21 01:39:09;;;;;;;1999.90;999.90;;;25.30;72.10;;;;;;5051433;28;20028;-70
2023/06/21 01:41:39;;;;;;;1999.90;999.90;;;25.60;71.10;;;;;;5051527;28;20037;-69
2023/06/21 01:44:13;;;;;;;1999.90;999.90;;;25.80;69.80;;;;;;5051790;28;20025;-71
2023/06/21 01:46:41;;;;;;;1999.90;999.90;;;25.90;70.00;;;;;;5053650;28;20029;-68
2023/06/21 01:49:09;;;;;;;1999.90;999.90;;;25.80;69.30;;;;;;5049545;28;20075;-70
2023/06/21 01:51:40;;;;;;;1999.90;999.90;;;25.80;69.50;;;;;;5043272;28;20044;-70
2023/06/21 01:54:09;;;;;;;1999.90;999.90;;;25.30;69.90;;;;;;5049462;28;20033;-71
2023/06/21 01:56:38;;;;;;;1999.90;999.90;;;25.30;70.70;;;;;;5044734;28;20111;-70
2023/06/21 01:59:05;;;;;;;1999.90;999.90;;;25.30;70.90;;;;;;5048491;28;20025;-70
2023/06/21 02:01:34;;;;;;;1999.90;999.90;;;25.70;69.80;;;;;;5050473;28;20036;-71
2023/06/21 02:04:04;;;;;;;1999.90;999.90;;;25.80;69.90;;;;;;5050245;28;20051;-69
2023/06/21 02:06:33;;;;;;;1999.90;999.90;;;25.80;69.70;;;;;;5046494;28;20071;-71
2023/06/21 02:09:01;;;;;;;1999.90;999.90;;;25.60;69.50;;;;;;5040049;28;20021;-72
2023/06/21 02:11:29;;;;;;;1999.90;999.90;;;25.40;70.20;;;;;;5045095;28;20114;-71
2023/06/21 02:13:57;;;;;;;1999.90;999.90;;;25.60;69.50;;;;;;5045826;28;20037;-70
2023/06/21 02:16:28;;;;;;;1999.90;999.90;;;25.60;68.30;;;;;;5053792;28;20029;-70
2023/06/21 02:18:56;;;;;;;1999.90;999.90;;;25.60;68.50;;;;;;5053662;28;20499;-70
2023/06/21 02:21:24;;;;;;;1999.90;999.90;;;25.50;68.10;;;;;;5048928;28;20036;-71
2023/06/21 02:23:51;;;;;;;1999.90;999.90;;;25.00;69.80;;;;;;5047906;28;20062;-71
2023/06/21 02:26:18;;;;;;;1999.90;999.90;;;25.20;69.90;;;;;;5046431;28;20039;-74
2023/06/21 02:28:46;;;;;;;1999.90;999.90;;;25.40;69.90;;;;;;5053892;28;20045;-70
2023/06/21 02:31:17;;;;;;;1999.90;999.90;;;25.70;69.40;;;;;;5050934;28;20044;-71
2023/06/21 02:33:46;;;;;;;1999.90;999.90;;;25.40;68.80;;;;;;5067878;28;20057;-70
2023/06/21 02:36:13;;;;;;;1999.90;999.90;;;25.30;69.20;;;;;;5052915;28;20044;-70
2023/06/21 02:38:41;;;;;;;1999.90;999.90;;;25.20;67.90;;;;;;5054473;28;20705;-71
2023/06/21 02:41:08;;;;;;;1999.90;999.90;;;25.40;67.90;;;;;;5052480;28;20067;-72
2023/06/21 02:43:36;;;;;;;1999.90;999.90;;;25.00;65.40;;;;;;5054051;28;20099;-70
2023/06/21 02:46:03;;;;;;;1999.90;999.90;;;24.80;65.80;;;;;;5049772;28;20025;-69
2023/06/21 02:48:30;;;;;;;1999.90;999.90;;;24.70;68.40;;;;;;5054826;28;20020;-71
2023/06/21 02:50:59;;;;;;;1999.90;999.90;;;24.60;67.80;;;;;;5051485;28;20036;-69
2023/06/21 02:53:26;;;;;;;1999.90;999.90;;;24.40;66.70;;;;;;5045411;28;20282;-71
2023/06/21 02:55:54;;;;;;;1999.90;999.90;;;24.20;68.30;;;;;;5053600;28;20570;-69
2023/06/21 02:58:21;;;;;;;1999.90;999.90;;;24.10;68.30;;;;;;5052605;28;20029;-69
2023/06/21 03:00:48;;;;;;;1999.90;999.90;;;23.90;67.90;;;;;;5048346;28;20029;-69
2023/06/21 03:03:16;;;;;;;1999.90;999.90;;;23.60;68.30;;;;;;5050512;28;20073;-70
2023/06/21 03:05:43;;;;;;;1999.90;999.90;;;23.30;67.40;;;;;;5047480;28;20025;-70
2023/06/21 03:08:11;;;;;;;1999.90;999.90;;;22.90;67.90;;;;;;5052555;28;20032;-70
2023/06/21 03:10:39;;;;;;;1999.90;999.90;;;22.50;68.70;;;;;;5049497;28;20511;-70
2023/06/21 03:13:06;;;;;;;1999.90;999.90;;;22.30;70.10;;;;;;5052050;28;20060;-70
2023/06/21 03:15:34;;;;;;;1999.90;999.90;;;22.00;70.00;;;;;;5042632;28;20056;-71
2023/06/21 03:18:01;;;;;;;1999.90;999.90;;;21.60;69.40;;;;;;5053234;28;20537;-71
2023/06/21 03:20:29;;;;;;;1999.90;999.90;;;21.20;70.20;;;;;;5051257;28;20055;-71
2023/06/21 03:22:56;;;;;;;1999.90;999.90;;;20.90;69.90;;;;;;5053177;28;20468;-69
2023/06/21 03:25:23;;;;;;;1999.90;999.90;;;20.70;70.90;;;;;;5043685;28;20044;-70
2023/06/21 03:27:51;;;;;;;1999.90;999.90;;;20.50;71.70;;;;;;5052603;28;20763;-69
2023/06/21 03:30:18;;;;;;;1999.90;999.90;;;20.20;71.60;;;;;;5046553;28;20055;-71
2023/06/21 03:32:49;;;;;;;1999.90;999.90;;;19.90;71.40;;;;;;5047209;28;20021;-72
2023/06/21 03:35:17;;;;;;;1999.90;999.90;;;19.50;73.00;;;;;;5043136;28;20040;-72
2023/06/21 03:37:46;;;;;;;1999.90;999.90;;;19.20;73.40;;;;;;5049376;28;20099;-70
2023/06/21 03:40:14;;;;;;;1999.90;999.90;;;18.70;73.50;;;;;;5048019;28;20499;-73
2023/06/21 03:42:45;;;;;;;1999.90;999.90;;;18.40;73.90;;;;;;5047689;28;20067;-71
2023/06/21 03:45:13;;;;;;;1999.90;999.90;;;18.10;74.20;;;;;;5046935;28;20045;-69
2023/06/21 03:47:43;;;;;;;1999.90;999.90;;;17.80;74.80;;;;;;5046623;28;20480;-69
2023/06/21 03:50:14;;;;;;;1999.90;999.90;;;17.50;73.50;;;;;;5050184;28;20127;-70
2023/06/21 03:52:41;;;;;;;1999.90;999.90;;;17.20;74.40;;;;;;5049580;28;20089;-72
2023/06/21 03:55:10;;;;;;;1999.90;999.90;;;16.90;74.30;;;;;;5046738;28;20031;-73
2023/06/21 03:57:40;;;;;;;1999.90;999.90;;;16.70;76.20;;;;;;5053780;28;20025;-72
2023/06/21 04:00:14;;;;;;;1999.90;999.90;;;16.60;77.90;;;;;;5049392;28;20032;-71
2023/06/21 04:02:42;;;;;;;1999.90;999.90;;;16.50;78.00;;;;;;5052253;28;20048;-70
2023/06/21 04:05:12;;;;;;;1999.90;999.90;;;16.40;77.80;;;;;;5053717;28;20037;-69
2023/06/21 04:07:40;;;;;;;1999.90;999.90;;;16.40;77.60;;;;;;5055450;28;20486;-72
2023/06/21 04:10:13;;;;;;;1999.90;999.90;;;16.40;78.00;;;;;;5049197;28;20037;-71
2023/06/21 04:12:41;;;;;;;1999.90;999.90;;;16.30;77.60;;;;;;5049932;28;20029;-71
2023/06/21 04:15:08;;;;;;;1999.90;999.90;;;16.30;78.20;;;;;;5052359;28;20082;-70
2023/06/21 04:17:36;;;;;;;1999.90;999.90;;;16.20;77.80;;;;;;5049825;28;20129;-71
2023/06/21 04:20:10;;;;;;;1999.90;999.90;;;16.20;78.30;;;;;;5048635;28;20372;-70
2023/06/21 04:22:40;;;;;;;1999.90;999.90;;;16.20;77.70;;;;;;5053635;28;20017;-72
2023/06/21 04:25:11;;;;;;;1999.90;999.90;;;16.00;77.00;;;;;;5050491;28;20043;-71
2023/06/21 04:27:45;;;;;;;1999.90;999.90;;;15.80;77.00;;;;;;5045927;28;20025;-72
2023/06/21 04:30:13;;;;;;;1999.90;999.90;;;15.70;76.20;;;;;;5049683;28;20048;-71
2023/06/21 04:32:47;;;;;;;1999.90;999.90;;;15.70;76.80;;;;;;5048841;28;20025;-70
2023/06/21 04:35:16;;;;;;;1999.90;999.90;;;15.70;76.10;;;;;;5050421;28;20071;-71
2023/06/21 04:37:47;;;;;;;1999.90;999.90;;;15.60;75.90;;;;;;5053930;28;20044;-71
2023/06/21 04:40:16;;;;;;;1999.90;999.90;;;15.60;74.70;;;;;;5054286;28;20029;-71
2023/06/21 04:42:47;;;;;;;1999.90;999.90;;;15.50;75.40;;;;;;5053399;28;20025;-70
2023/06/21 04:45:16;;;;;;;1999.90;999.90;;;15.50;74.80;;;;;;5052610;28;20028;-70
2023/06/21 04:47:48;;;;;;;1999.90;999.90;;;15.30;75.90;;;;;;5053134;28;20037;-70
2023/06/21 04:50:16;;;;;;;1999.90;999.90;;;15.30;75.80;;;;;;5054334;28;20033;-72
2023/06/21 04:52:47;;;;;;;1999.90;999.90;;;15.30;77.00;;;;;;5056044;28;20050;-71
2023/06/21 04:55:18;;;;;;;1999.90;999.90;;;15.20;76.40;;;;;;5054059;28;20044;-71
2023/06/21 04:57:48;;;;;;;1999.90;999.90;;;15.20;76.70;;;;;;5050806;28;20029;-71
2023/06/21 05:00:17;;;;;;;1999.90;999.90;;;15.10;75.60;;;;;;5050633;28;20066;-71
2023/06/21 05:02:44;;;;;;;1999.90;999.90;;;15.00;76.20;;;;;;5052514;28;20113;-71
2023/06/21 05:05:11;;;;;;;1999.90;999.90;;;14.90;76.50;;;;;;5049969;28;20048;-70
2023/06/21 05:07:39;;;;;;;1999.90;999.90;;;14.90;76.40;;;;;;5048910;28;20021;-70
2023/06/21 05:10:08;;;;;;;1999.90;999.90;;;14.80;76.70;;;;;;5054159;28;20160;-71
2023/06/21 05:12:38;;;;;;;1999.90;999.90;;;14.80;77.20;;;;;;5050296;28;20033;-69
2023/06/21 05:15:06;;;;;;;1999.90;999.90;;;14.70;77.80;;;;;;5051028;28;20086;-70
2023/06/21 05:17:35;;;;;;;1999.90;999.90;;;14.80;77.20;;;;;;5050097;28;20382;-70
2023/06/21 05:20:04;;;;;;;1999.90;999.90;;;14.80;77.60;;;;;;5050439;28;20133;-70
2023/06/21 05:22:32;;;;;;;1999.90;999.90;;;14.70;77.50;;;;;;5050241;28;20033;-70
2023/06/21 05:25:01;;;;;;;1999.90;999.90;;;14.60;77.90;;;;;;5047390;28;20030;-70
2023/06/21 05:27:29;;;;;;;1999.90;999.90;;;14.60;78.50;;;;;;5048059;28;20407;-70
2023/06/21 05:29:57;;;;;;;1999.90;999.90;;;14.70;78.20;;;;;;5051938;28;20065;-70
2023/06/21 05:32:25;;;;;;;1999.90;999.90;;;14.70;78.00;;;;;;5044874;28;20021;-70
2023/06/21 05:34:53;;;;;;;1999.90;999.90;;;14.80;77.10;;;;;;5049967;28;20490;-70
2023/06/21 05:37:20;;;;;;;1999.90;999.90;;;14.70;77.70;;;;;;5049612;28;20360;-71
2023/06/21 05:39:47;;;;;;;1999.90;999.90;;;14.60;77.70;;;;;;5052606;28;20036;-70
2023/06/21 05:42:15;;;;;;;1999.90;999.90;;;14.60;77.90;;;;;;5045262;28;20064;-72
2023/06/21 05:44:42;;;;;;;1999.90;999.90;;;14.60;78.20;;;;;;5054716;28;20029;-73
2023/06/21 05:47:09;;;;;;;1999.90;999.90;;;14.50;79.00;;;;;;5053840;28;21019;-71
2023/06/21 05:49:37;;;;;;;1999.90;999.90;;;14.50;78.00;;;;;;5052676;28;20036;-70
2023/06/21 05:52:04;;;;;;;1999.90;999.90;;;14.50;79.40;;;;;;5045272;28;20025;-71
2023/06/21 05:54:32;;;;;;;1999.90;999.90;;;14.50;79.90;;;;;;5046674;28;20045;-71
2023/06/21 05:56:59;;;;;;;1999.90;999.90;;;14.40;80.40;;;;;;5052047;28;20033;-70
2023/06/21 05:59:26;;;;;;;1999.90;999.90;;;14.40;80.70;;;;;;5046356;28;20381;-70
2023/06/21 06:01:53;;;;;;;1999.90;999.90;;;14.50;80.20;;;;;;5049680;28;20112;-70
2023/06/21 06:04:21;;;;;;;1999.90;999.90;;;14.40;80.30;;;;;;5055794;28;20051;-68
2023/06/21 06:06:48;;;;;;;1999.90;999.90;;;14.50;80.80;;;;;;5054155;28;20082;-70
2023/06/21 06:09:17;;;;;;;1999.90;999.90;;;14.50;79.80;;;;;;5044853;28;20075;-70
2023/06/21 06:11:44;;;;;;;1999.90;999.90;;;14.70;79.50;;;;;;5048395;28;20029;-68
2023/06/21 06:14:11;;;;;;;1999.90;999.90;;;14.80;79.20;;;;;;5054762;28;20044;-69
2023/06/21 06:16:39;;;;;;;1999.90;999.90;;;14.90;79.20;;;;;;5047480;28;20148;-69
2023/06/21 06:19:07;;;;;;;1999.90;999.90;;;15.00;78.80;;;;;;5053107;28;20294;-68
2023/06/21 06:21:36;;;;;;;1999.90;999.90;;;15.00;79.60;;;;;;5047879;28;20048;-70
2023/06/21 06:24:04;;;;;;;1999.90;999.90;;;15.00;79.40;;;;;;5048727;28;20025;-71
2023/06/21 06:26:31;;;;;;;1999.90;999.90;;;15.00;79.70;;;;;;5048465;28;20081;-70
2023/06/21 06:28:58;;;;;;;1999.90;999.90;;;14.90;80.30;;;;;;5054187;28;20040;-70
2023/06/21 06:31:28;;;;;;;1999.90;999.90;;;14.80;80.50;;;;;;5050932;28;20136;-75
2023/06/21 06:33:56;;;;;;;1999.90;999.90;;;14.70;80.10;;;;;;5056305;28;20062;-74
2023/06/21 06:36:23;;;;;;;1999.90;999.90;;;14.50;80.50;;;;;;5047209;28;20043;-74
2023/06/21 06:38:53;;;;;;;1999.90;999.90;;;14.30;80.70;;;;;;5055345;28;20068;-73
2023/06/21 06:41:20;;;;;;;1999.90;999.90;;;14.20;81.10;;;;;;5048959;28;20482;-74
2023/06/21 06:43:49;;;;;;;1999.90;999.90;;;14.00;81.00;;;;;;5050212;28;20029;-74
2023/06/21 06:46:17;;;;;;;1999.90;999.90;;;13.80;81.50;;;;;;5051476;28;20033;-75
2023/06/21 06:48:44;;;;;;;1999.90;999.90;;;13.60;81.90;;;;;;5048019;28;20028;-75
2023/06/21 06:51:11;;;;;;;1999.90;999.90;;;13.50;82.20;;;;;;5052475;28;20155;-73
2023/06/21 06:53:39;;;;;;;1999.90;999.90;;;13.40;82.70;;;;;;5053996;28;20088;-72
2023/06/21 06:56:06;;;;;;;1999.90;999.90;;;13.20;83.60;;;;;;5050518;28;20045;-73
2023/06/21 06:58:35;;;;;;;1999.90;999.90;;;13.00;84.30;;;;;;5048795;28;20461;-74
2023/06/21 07:01:06;;;;;;;1999.90;999.90;;;12.90;84.90;;;;;;5053203;28;20020;-75
2023/06/21 07:03:34;;;;;;;1999.90;999.90;;;12.80;85.10;;;;;;5051019;28;20040;-75
2023/06/21 07:06:01;;;;;;;1999.90;999.90;;;12.60;85.40;;;;;;5043871;28;20047;-73
2023/06/21 07:08:29;;;;;;;1999.90;999.90;;;12.50;85.90;;;;;;5052236;28;20052;-72
2023/06/21 07:10:56;;;;;;;1999.90;999.90;;;12.40;86.70;;;;;;5044645;28;20373;-73
2023/06/21 07:13:23;;;;;;;1999.90;999.90;;;12.20;86.60;;;;;;5049147;28;20494;-73
2023/06/21 07:15:51;;;;;;;1999.90;999.90;;;12.10;87.70;;;;;;5048588;28;20068;-73
2023/06/21 07:18:18;;;;;;;1999.90;999.90;;;12.00;88.70;;;;;;5047615;28;20025;-72
2023/06/21 07:20:46;;;;;;;1999.90;999.90;;;11.90;89.00;;;;;;5056205;28;20084;-73
2023/06/21 07:23:13;;;;;;;1999.90;999.90;;;11.80;89.40;;;;;;5054876;28;20032;-74
2023/06/21 07:25:40;;;;;;;1999.90;999.90;;;11.70;89.10;;;;;;5050559;28;20028;-72
2023/06/21 07:28:08;;;;;;;1999.90;999.90;;;11.60;89.50;;;;;;5059271;28;20104;-73
2023/06/21 07:30:35;;;;;;;1999.90;999.90;;;11.50;89.70;;;;;;5056076;28;20027;-73
2023/06/21 07:33:03;;;;;;;1999.90;999.90;;;11.50;89.90;;;;;;5056050;28;20036;-73
2023/06/21 07:35:30;;;;;;;1999.90;999.90;;;11.50;90.10;;;;;;5054588;28;20041;-73
2023/06/21 07:37:58;;;;;;;1999.90;999.90;;;11.40;90.10;;;;;;5057937;28;20111;-73
2023/06/21 07:40:25;;;;;;;1999.90;999.90;;;11.30;90.30;;;;;;5056443;28;20040;-73
2023/06/21 07:42:53;;;;;;;1999.90;999.90;;;11.20;90.60;;;;;;5059464;28;20025;-73
2023/06/21 07:45:20;;;;;;;1999.90;999.90;;;11.10;91.20;;;;;;5049736;28;20033;-75
2023/06/21 07:47:47;;;;;;;1999.90;999.90;;;11.00;91.50;;;;;;5049261;28;20036;-74
2023/06/21 07:50:15;;;;;;;1999.90;999.90;;;10.90;91.80;;;;;;5051057;28;20036;-74
2023/06/21 07:52:42;;;;;;;1999.90;999.90;;;10.80;91.90;;;;;;5055666;28;20493;-72
2023/06/21 07:55:11;;;;;;;1999.90;999.90;;;10.70;92.00;;;;;;5049397;28;20033;-72
2023/06/21 07:57:39;;;;;;;1999.90;999.90;;;10.50;92.10;;;;;;5055554;28;20391;-74
2023/06/21 08:00:11;;;;;;;1999.90;999.90;;;10.40;92.30;;;;;;5055945;28;20529;-74
2023/06/21 08:02:42;;;;;;;1999.90;999.90;;;10.30;92.60;;;;;;5046704;28;21593;-73
2023/06/21 08:05:09;;;;;;;1999.90;999.90;;;10.10;92.80;;;;;;5057725;28;20047;-75
2023/06/21 08:07:37;;;;;;;1999.90;999.90;;;10.00;93.30;;;;;;5061718;28;20029;-73
2023/06/21 08:10:05;;;;;;;1999.90;999.90;;;9.90;93.20;;;;;;5056228;28;20052;-74
2023/06/21 08:12:32;;;;;;;1999.90;999.90;;;9.90;93.40;;;;;;5058539;28;20062;-74
2023/06/21 08:15:00;;;;;;;1999.90;999.90;;;9.80;93.50;;;;;;5056775;28;20375;-74
2023/06/21 08:17:27;;;;;;;1999.90;999.90;;;9.70;93.50;;;;;;5049391;28;20871;-73
2023/06/21 08:19:54;;;;;;;1999.90;999.90;;;9.70;93.70;;;;;;5060845;28;20043;-74
2023/06/21 08:22:22;;;;;;;1999.90;999.90;;;9.60;93.90;;;;;;5049091;28;20373;-74
2023/06/21 08:24:49;;;;;;;1999.90;999.90;;;9.60;94.10;;;;;;5061230;28;20488;-74
2023/06/21 08:27:18;;;;;;;1999.90;999.90;;;9.50;94.50;;;;;;5056934;28;20060;-73
2023/06/21 08:29:47;;;;;;;1999.90;999.90;;;9.40;94.70;;;;;;5056335;28;20025;-74
2023/06/21 08:32:14;;;;;;;1999.90;999.90;;;9.30;95.10;;;;;;5050795;28;20017;-74
2023/06/21 08:34:41;;;;;;;1999.90;999.90;;;9.20;95.20;;;;;;5056971;28;20070;-73
2023/06/21 08:37:08;;;;;;;1999.90;999.90;;;9.10;95.40;;;;;;5054169;28;20479;-72
2023/06/21 08:39:36;;;;;;;1999.90;999.90;;;9.00;95.70;;;;;;5057363;28;20064;-73
2023/06/21 08:42:03;;;;;;;1999.90;999.90;;;8.90;95.90;;;;;;5064844;28;20040;-73
2023/06/21 08:44:32;;;;;;;1999.90;999.90;;;8.80;96.20;;;;;;5067568;28;20032;-75
2023/06/21 08:47:01;;;;;;;1999.90;999.90;;;8.70;96.40;;;;;;5058132;28;20100;-74
2023/06/21 08:49:30;;;;;;;1999.90;999.90;;;8.60;96.60;;;;;;5060158;28;20043;-75
2023/06/21 08:52:00;;;;;;;1999.90;999.90;;;8.60;97.00;;;;;;5058676;28;20040;-74
2023/06/21 08:54:30;;;;;;;1999.90;999.90;;;8.60;97.20;;;;;;5057113;28;20041;-74
2023/06/21 08:57:05;;;;;;;1999.90;999.90;;;8.50;97.30;;;;;;5058535;28;20028;-74
2023/06/21 08:59:57;;;;;;;1999.90;999.90;;;8.40;97.60;;;;;;5059765;28;20025;-74
2023/06/21 09:02:36;;;;;;;1999.90;999.90;;;8.30;97.70;;;;;;5057995;28;20025;-74
2023/06/21 09:05:14;;;;;;;1999.90;999.90;;;8.30;98.00;;;;;;5057263;28;20044;-73
2023/06/21 09:07:43;;;;;;;1999.90;999.90;;;8.30;98.60;;;;;;5067666;28;20017;-73
2023/06/21 09:10:10;;;;;;;1999.90;999.90;;;8.30;98.90;;;;;;5057028;28;20033;-74
2023/06/21 09:12:39;;;;;;;1999.90;999.90;;;8.20;99.00;;;;;;5058465;28;20063;-73
2023/06/21 09:15:08;;;;;;;1999.90;999.90;;;8.20;99.20;;;;;;5061924;28;20136;-74
2023/06/21 09:17:37;;;;;;;1999.90;999.90;;;8.10;99.40;;;;;;5065112;28;20112;-74
2023/06/21 09:20:05;;;;;;;1999.90;999.90;;;8.10;99.60;;;;;;5059280;28;20051;-74
2023/06/21 09:22:32;;;;;;;1999.90;999.90;;;8.10;99.70;;;;;;5061646;28;20016;-73
2023/06/21 09:25:00;;;;;;;1999.90;999.90;;;8.00;99.80;;;;;;5057784;28;20559;-76
2023/06/21 09:27:27;;;;;;;1999.90;999.90;;;8.00;99.90;;;;;;5059297;28;20052;-73
2023/06/21 09:29:55;;;;;;;1999.90;999.90;;;7.90;99.90;;;;;;5062709;28;20029;-72
2023/06/21 09:32:22;;;;;;;1999.90;999.90;;;7.90;99.90;;;;;;5059541;28;20023;-74
2023/06/21 09:34:50;;;;;;;1999.90;999.90;;;7.80;99.90;;;;;;5065107;28;20033;-75
2023/06/21 09:37:34;;;;;;;1999.90;999.90;;;7.80;99.90;;;;;;5060939;28;20085;-75
2023/06/21 09:40:03;;;;;;;1999.90;999.90;;;7.70;99.90;;;;;;5065271;28;20036;-75
2023/06/21 09:42:31;;;;;;;1999.90;999.90;;;7.70;99.90;;;;;;5056000;28;20024;-75
2023/06/21 09:44:59;;;;;;;1999.90;999.90;;;7.70;99.90;;;;;;5060236;28;20032;-75
2023/06/21 09:47:30;;;;;;;1999.90;999.90;;;7.70;99.90;;;;;;5063946;28;20060;-73
2023/06/21 09:49:58;;;;;;;1999.90;999.90;;;7.70;99.90;;;;;;5062428;28;20071;-74
2023/06/21 09:52:26;;;;;;;1999.90;999.90;;;7.70;99.90;;;;;;5059350;28;20033;-73
2023/06/21 09:54:57;;;;;;;1999.90;999.90;;;7.70;99.90;;;;;;5062509;28;20055;-73
2023/06/21 09:57:32;;;;;;;1999.90;999.90;;;7.70;99.90;;;;;;5050469;28;20025;-72
2023/06/21 10:00:01;;;;;;;1999.90;999.90;;;7.70;99.90;;;;;;5063126;28;20031;-73
2023/06/21 10:02:28;;;;;;;1999.90;999.90;;;7.70;99.90;;;;;;5054128;28;20017;-74
2023/06/21 10:04:56;;;;;;;1999.90;999.90;;;7.70;99.90;;;;;;5061870;28;20478;-73
2023/06/21 10:07:26;;;;;;;1999.90;999.90;;;7.70;99.90;;;;;;5055235;28;20017;-74
2023/06/21 10:09:54;;;;;;;1999.90;999.90;;;7.70;99.90;;;;;;5050685;28;20040;-76
2023/06/21 10:12:21;;;;;;;1999.90;999.90;;;7.70;99.90;;;;;;5059867;28;20430;-74
2023/06/21 10:14:51;;;;;;;1999.90;999.90;;;7.70;99.90;;;;;;5052054;28;20035;-74
2023/06/21 10:17:19;;;;;;;1999.90;999.90;;;7.80;99.90;;;;;;5052718;28;20384;-74
2023/06/21 10:19:47;;;;;;;1999.90;999.90;;;7.80;99.90;;;;;;5059839;28;20076;-72
2023/06/21 10:22:21;;;;;;;1999.90;999.90;;;7.80;99.90;;;;;;5049851;28;20033;-75
2023/06/21 10:24:50;;;;;;;1999.90;999.90;;;7.80;99.90;;;;;;5053010;28;20447;-75
2023/06/21 10:27:19;;;;;;;1999.90;999.90;;;7.70;99.90;;;;;;5056389;28;20025;-74
2023/06/21 10:29:56;;;;;;;1999.90;999.90;;;7.70;99.90;;;;;;5065553;28;20032;-72
2023/06/21 10:32:25;;;;;;;1999.90;999.90;;;7.60;99.90;;;;;;5061524;28;20029;-73
2023/06/21 10:35:21;;;;;;;1999.90;999.90;;;7.60;99.90;;;;;;5055358;28;20048;-76
2023/06/21 10:37:55;;;;;;;1999.90;999.90;;;7.60;99.90;;;;;;5057639;28;20492;-74
2023/06/21 10:40:25;;;;;;;1999.90;999.90;;;7.50;99.90;;;;;;5057803;28;20025;-74
2023/06/21 10:42:55;;;;;;;1999.90;999.90;;;7.40;99.90;;;;;;5056637;28;20044;-73
2023/06/21 10:45:23;;;;;;;1999.90;999.90;;;7.40;99.90;;;;;;5056410;28;20021;-74
2023/06/21 10:47:54;;;;;;;1999.90;999.90;;;7.40;99.90;;;;;;5061252;28;20035;-73
2023/06/21 10:50:24;;;;;;;1999.90;999.90;;;7.30;99.90;;;;;;5066196;28;20469;-73
2023/06/21 10:52:56;;;;;;;1999.90;999.90;;;7.20;99.90;;;;;;5062650;28;20028;-74
2023/06/21 10:55:23;;;;;;;1999.90;999.90;;;7.20;99.90;;;;;;5057640;28;20775;-73
2023/06/21 10:57:55;;;;;;;1999.90;999.90;;;7.10;99.90;;;;;;5059936;28;20034;-73
2023/06/21 11:00:24;;;;;;;1999.90;999.90;;;7.10;99.90;;;;;;5051288;28;20043;-73
2023/06/21 11:02:52;;;;;;;1999.90;999.90;;;7.10;99.90;;;;;;5055176;28;20050;-73
2023/06/21 11:05:27;;;;;;;1999.90;999.90;;;7.10;99.90;;;;;;5046565;28;20033;-73
2023/06/21 11:07:54;;;;;;;1999.90;999.90;;;7.20;99.90;;;;;;5055714;28;20027;-74
2023/06/21 11:10:29;;;;;;;1999.90;999.90;;;7.20;99.90;;;;;;5059011;28;20067;-74
2023/06/21 11:12:57;;;;;;;1999.90;999.90;;;7.30;99.90;;;;;;5059000;28;20498;-73
2023/06/21 11:15:28;;;;;;;1999.90;999.90;;;7.40;99.90;;;;;;5045389;28;20036;-74
2023/06/21 11:18:02;;;;;;;1999.90;999.90;;;7.40;99.90;;;;;;5058160;28;20104;-74
2023/06/21 11:20:33;;;;;;;1999.90;999.90;;;7.50;99.90;;;;;;5058229;28;20028;-73
2023/06/21 11:23:08;;;;;;;1999.90;999.90;;;7.60;99.90;;;;;;5057489;28;20024;-73
2023/06/21 11:25:48;;;;;;;1999.90;999.90;;;7.70;99.90;;;;;;5071259;28;20035;-74
2023/06/21 11:28:19;;;;;;;1999.90;999.90;;;7.70;99.90;;;;;;5053186;28;20107;-74
2023/06/21 11:31:07;;;;;;;1999.90;999.90;;;7.80;99.90;;;;;;5059207;28;20048;-74
2023/06/21 11:33:46;;;;;;;1999.90;999.90;;;7.80;99.90;;;;;;5062004;28;20034;-73
2023/06/21 11:36:16;;;;;;;1999.90;999.90;;;7.80;99.90;;;;;;5056534;28;20396;-73
2023/06/21 11:39:06;;;;;;;1999.90;999.90;;;7.80;99.90;;;;;;5054709;28;20087;-74
2023/06/21 11:41:57;;;;;;;1999.90;999.90;;;7.80;99.90;;;;;;5061176;28;20494;-73
2023/06/21 11:44:27;;;;;;;1999.90;999.90;;;7.80;99.90;;;;;;5047041;28;20071;-73
2023/06/21 11:47:18;;;;;;;1999.90;999.90;;;7.80;99.90;;;;;;5051630;28;20087;-73
2023/06/21 11:49:52;;;;;;;1999.90;999.90;;;7.70;99.90;;;;;;5048081;28;20044;-73
2023/06/21 11:52:32;;;;;;;1999.90;999.90;;;7.80;99.90;;;;;;5054705;28;20174;-73
2023/06/21 11:55:13;;;;;;;1999.90;999.90;;;7.80;99.90;;;;;;5051953;28;20043;-74
2023/06/21 11:57:44;;;;;;;1999.90;999.90;;;7.80;99.90;;;;;;5049328;28;20124;-73
2023/06/21 12:00:12;;;;;;;1999.90;999.90;;;7.80;99.90;;;;;;5055031;28;20054;-73
2023/06/21 12:02:40;;;;;;;1999.90;999.90;;;7.80;99.90;;;;;;5057474;28;20040;-74
2023/06/21 12:05:07;;;;;;;1999.90;999.90;;;7.80;99.90;;;;;;5054618;28;20033;-73
2023/06/21 12:07:37;;;;;;;1999.90;999.90;;;7.70;99.90;;;;;;5052824;28;20472;-74
2023/06/21 12:10:05;;;;;;;1999.90;999.90;;;7.80;99.90;;;;;;5059663;28;20029;-74
2023/06/21 12:12:33;;;;;;;1999.90;999.90;;;7.80;99.90;;;;;;5055056;28;20033;-73